Time;durP1;ratioP1;P1;durP2;ratioP2;P2;SDS_P1;SDS_P2;PMS_P1;PMS_P2;Temp;Humidity;BMP_temperature;BMP_pressure;BME280_temperature;BME280_humidity;BME280_pressure;Samples;Min_cycle;Max_cycle;Signal;HPM_P1;HPM_P2
2022/04/02 00:01:54;;;;;;;19.47;4.50;;;16.00;91.90;;;;;;4982845;28;20193;-76
2022/04/02 00:04:23;;;;;;;15.70;4.03;;;16.00;91.80;;;;;;4988370;28;20192;-74
2022/04/02 00:06:52;;;;;;;21.60;4.67;;;15.90;92.10;;;;;;4983236;28;20541;-75
2022/04/02 00:09:21;;;;;;;19.07;4.10;;;15.90;92.00;;;;;;4984467;28;20212;-74
2022/04/02 00:11:51;;;;;;;17.27;4.27;;;15.90;92.00;;;;;;4984360;28;20197;-74
2022/04/02 00:14:19;;;;;;;18.40;3.73;;;16.00;91.80;;;;;;4984450;28;20227;-75
2022/04/02 00:16:48;;;;;;;24.03;4.27;;;15.90;91.70;;;;;;4983327;28;20204;-73
2022/04/02 00:19:16;;;;;;;18.83;3.90;;;15.90;91.70;;;;;;4984291;28;20221;-75
2022/04/02 00:21:44;;;;;;;21.63;4.07;;;15.90;91.70;;;;;;4979605;28;20236;-75
2022/04/02 00:24:13;;;;;;;20.40;4.07;;;15.90;91.60;;;;;;4983306;28;20208;-75
2022/04/02 00:26:41;;;;;;;15.13;4.23;;;15.90;91.60;;;;;;4982858;28;20209;-74
2022/04/02 00:29:11;;;;;;;18.97;4.23;;;15.90;91.70;;;;;;4983276;28;20875;-75
2022/04/02 00:31:40;;;;;;;24.37;4.17;;;15.90;91.60;;;;;;4982577;28;20197;-76
2022/04/02 00:34:09;;;;;;;14.73;3.20;;;15.90;91.60;;;;;;4981074;28;20220;-76
2022/04/02 00:36:38;;;;;;;20.53;4.10;;;15.90;91.60;;;;;;4983120;28;20768;-75
2022/04/02 00:39:08;;;;;;;16.47;3.50;;;15.90;91.50;;;;;;4983967;28;20199;-76
2022/04/02 00:41:36;;;;;;;19.60;4.57;;;15.90;91.60;;;;;;4982643;28;21135;-77
2022/04/02 00:44:12;;;;;;;12.80;3.90;;;15.90;91.90;;;;;;4981590;28;20643;-75
2022/04/02 00:46:43;;;;;;;15.20;3.50;;;15.90;91.60;;;;;;4982972;28;20597;-76
2022/04/02 00:49:13;;;;;;;23.80;5.00;;;15.80;91.60;;;;;;4983349;28;20659;-76
2022/04/02 00:51:43;;;;;;;21.60;4.07;;;15.80;91.50;;;;;;4981999;28;20670;-75
2022/04/02 00:54:15;;;;;;;19.80;3.70;;;15.80;91.60;;;;;;4982622;28;21102;-73
2022/04/02 00:56:44;;;;;;;17.27;3.47;;;15.80;91.60;;;;;;4983402;28;20650;-75
2022/04/02 00:59:14;;;;;;;18.63;3.90;;;15.80;91.60;;;;;;4985231;28;20219;-75
2022/04/02 01:01:45;;;;;;;13.90;3.50;;;15.80;91.60;;;;;;4980261;28;20201;-75
2022/04/02 01:04:14;;;;;;;17.00;3.93;;;15.80;91.70;;;;;;4981842;28;20193;-75
2022/04/02 01:06:43;;;;;;;14.50;2.97;;;15.80;91.70;;;;;;4981848;28;20215;-75
2022/04/02 01:09:11;;;;;;;21.73;3.77;;;15.80;91.70;;;;;;4985205;28;20201;-76
2022/04/02 01:11:42;;;;;;;18.03;3.67;;;15.70;91.80;;;;;;4984131;28;21016;-75
2022/04/02 01:14:11;;;;;;;21.33;3.97;;;15.70;91.90;;;;;;4982967;28;20205;-74
2022/04/02 01:16:41;;;;;;;21.37;3.40;;;15.70;91.80;;;;;;4981286;28;20659;-75
2022/04/02 01:19:09;;;;;;;14.03;3.83;;;15.70;91.90;;;;;;4982917;28;20207;-75
2022/04/02 01:21:38;;;;;;;20.30;4.03;;;15.70;92.00;;;;;;4982851;28;20236;-75
2022/04/02 01:24:08;;;;;;;16.80;3.40;;;15.70;92.00;;;;;;4981332;28;20212;-75
2022/04/02 01:26:37;;;;;;;21.33;4.27;;;15.70;92.30;;;;;;4981132;28;20201;-75
2022/04/02 01:29:06;;;;;;;20.33;4.40;;;15.60;92.30;;;;;;4981893;28;20190;-75
2022/04/02 01:31:35;;;;;;;17.40;4.40;;;15.60;92.40;;;;;;4981919;28;20197;-75
2022/04/02 01:34:04;;;;;;;16.33;4.20;;;15.50;92.60;;;;;;4978685;28;20316;-76
2022/04/02 01:36:32;;;;;;;26.30;4.57;;;15.50;92.80;;;;;;4981452;28;20204;-76
2022/04/02 01:39:00;;;;;;;17.43;4.60;;;15.50;93.10;;;;;;4983083;28;20200;-75
2022/04/02 01:41:30;;;;;;;12.47;4.87;;;15.50;93.00;;;;;;4984290;28;20209;-75
2022/04/02 01:43:59;;;;;;;24.93;4.50;;;15.50;92.90;;;;;;4983546;28;20208;-76
2022/04/02 01:46:27;;;;;;;14.70;3.53;;;15.50;93.00;;;;;;4983574;28;20208;-74
2022/04/02 01:48:56;;;;;;;27.83;4.37;;;15.50;93.00;;;;;;4982430;28;20204;-74
2022/04/02 01:51:24;;;;;;;18.33;4.90;;;15.50;93.20;;;;;;4980965;28;20740;-76
2022/04/02 01:53:52;;;;;;;17.73;4.10;;;15.40;93.40;;;;;;4982248;28;20244;-76
2022/04/02 01:56:21;;;;;;;19.03;3.93;;;15.40;93.50;;;;;;4980468;28;20220;-76
2022/04/02 01:58:50;;;;;;;17.77;4.03;;;15.40;93.40;;;;;;4980690;28;20899;-76
2022/04/02 02:01:19;;;;;;;23.77;5.10;;;15.40;93.40;;;;;;4980332;28;20200;-76
2022/04/02 02:03:47;;;;;;;17.83;4.93;;;15.40;93.40;;;;;;4980967;28;20212;-77
2022/04/02 02:06:16;;;;;;;15.37;4.30;;;15.30;93.70;;;;;;4982518;28;22050;-77
2022/04/02 02:08:44;;;;;;;12.13;4.30;;;15.30;93.60;;;;;;4980356;28;20193;-76
2022/04/02 02:11:12;;;;;;;16.13;4.10;;;15.20;93.60;;;;;;4980493;28;20201;-77
2022/04/02 02:13:41;;;;;;;11.10;3.53;;;15.20;93.40;;;;;;4981163;28;20200;-75
2022/04/02 02:16:10;;;;;;;8.03;2.70;;;15.20;93.30;;;;;;4980123;28;20216;-75
2022/04/02 02:18:39;;;;;;;10.33;2.50;;;15.10;93.10;;;;;;4983936;28;20208;-75
2022/04/02 02:21:07;;;;;;;14.23;3.27;;;15.10;93.00;;;;;;4941053;28;1270596;-77
2022/04/02 02:23:36;;;;;;;14.63;2.77;;;15.10;93.00;;;;;;4984409;28;20223;-73
2022/04/02 02:26:04;;;;;;;10.40;2.87;;;15.10;93.00;;;;;;4984738;28;20228;-75
2022/04/02 02:28:33;;;;;;;11.37;2.60;;;15.00;93.30;;;;;;4983910;28;20204;-74
2022/04/02 02:31:01;;;;;;;11.70;2.70;;;15.10;92.90;;;;;;4984880;28;20204;-77
2022/04/02 02:36:17;;;;;;;5.20;2.23;;;15.00;92.90;;;;;;4984756;28;20235;-75
2022/04/02 02:38:46;;;;;;;10.97;2.60;;;15.00;92.90;;;;;;4984885;28;20198;-77
2022/04/02 02:41:14;;;;;;;6.90;1.87;;;15.00;92.90;;;;;;4983411;28;20204;-77
2022/04/02 02:43:43;;;;;;;5.97;1.73;;;15.00;92.90;;;;;;4984644;28;20205;-76
2022/04/02 02:46:14;;;;;;;9.27;2.40;;;14.90;92.80;;;;;;4985641;28;20204;-75
2022/04/02 02:48:44;;;;;;;7.43;1.73;;;14.90;92.80;;;;;;4983194;28;20197;-75
2022/04/02 02:51:12;;;;;;;8.67;1.90;;;14.90;93.10;;;;;;4985237;28;20205;-75
2022/04/02 02:53:44;;;;;;;8.00;1.90;;;14.90;93.00;;;;;;4985969;28;20201;-76
2022/04/02 02:56:12;;;;;;;7.47;1.50;;;14.90;92.90;;;;;;4986357;28;20242;-75
2022/04/02 02:58:40;;;;;;;12.73;1.90;;;14.80;92.90;;;;;;4984984;28;20204;-75
2022/04/02 03:01:11;;;;;;;8.73;1.83;;;14.80;92.80;;;;;;4985111;28;20231;-76
2022/04/02 03:03:39;;;;;;;5.07;1.80;;;14.80;92.90;;;;;;4985578;28;20279;-76
2022/04/02 03:06:09;;;;;;;4.47;1.03;;;14.70;92.90;;;;;;4985476;28;20188;-74
2022/04/02 03:08:38;;;;;;;7.90;1.33;;;14.70;92.80;;;;;;4983106;28;20197;-73
2022/04/02 03:11:06;;;;;;;4.57;1.30;;;14.80;92.80;;;;;;4983714;28;20189;-74
2022/04/02 03:13:38;;;;;;;4.30;1.30;;;14.80;92.90;;;;;;4983833;28;20270;-74
2022/04/02 03:16:06;;;;;;;5.93;1.40;;;14.70;92.90;;;;;;4983825;28;21065;-75
2022/04/02 03:18:35;;;;;;;7.93;1.67;;;14.70;93.00;;;;;;4984950;28;20197;-75
2022/04/02 03:21:03;;;;;;;7.13;1.70;;;14.70;93.00;;;;;;4983356;28;20754;-74
2022/04/02 03:23:33;;;;;;;5.27;1.77;;;14.70;93.10;;;;;;4983793;28;20565;-74
2022/04/02 03:26:02;;;;;;;5.17;1.87;;;14.70;93.10;;;;;;4983746;28;20278;-74
2022/04/02 03:28:30;;;;;;;4.27;1.20;;;14.70;93.20;;;;;;4983899;28;20208;-75
2022/04/02 03:30:58;;;;;;;7.17;1.90;;;14.70;93.20;;;;;;4982898;28;20200;-75
2022/04/02 03:33:27;;;;;;;9.00;2.07;;;14.70;93.30;;;;;;4983588;28;20903;-75
2022/04/02 03:35:55;;;;;;;6.77;1.93;;;14.70;93.10;;;;;;4985286;28;20221;-74
2022/04/02 03:38:23;;;;;;;3.97;1.50;;;14.70;93.10;;;;;;4983950;28;20207;-74
2022/04/02 03:40:53;;;;;;;7.73;1.63;;;14.70;93.10;;;;;;4982619;28;20208;-73
2022/04/02 03:43:21;;;;;;;5.07;1.73;;;14.70;93.20;;;;;;4982358;28;20197;-74
2022/04/02 03:45:50;;;;;;;7.17;1.40;;;14.70;93.20;;;;;;4983511;28;20196;-74
2022/04/02 03:48:19;;;;;;;7.70;1.40;;;14.70;93.30;;;;;;4983951;28;20207;-74
2022/04/02 03:50:47;;;;;;;4.70;1.93;;;14.70;93.50;;;;;;4983068;28;20821;-76
2022/04/02 03:53:15;;;;;;;6.73;1.60;;;14.60;93.50;;;;;;4983074;28;20205;-74
2022/04/02 03:55:44;;;;;;;3.00;1.33;;;14.60;93.50;;;;;;4983635;28;20751;-74
2022/04/02 03:58:14;;;;;;;3.73;1.53;;;14.60;93.50;;;;;;4984385;28;20193;-75
2022/04/02 04:00:42;;;;;;;6.23;1.83;;;14.60;93.50;;;;;;4982240;28;20200;-75
2022/04/02 04:03:16;;;;;;;3.20;1.40;;;14.60;93.40;;;;;;4982960;28;20216;-74
2022/04/02 04:05:45;;;;;;;3.33;1.53;;;14.70;93.50;;;;;;4982998;28;20196;-75
2022/04/02 04:08:13;;;;;;;5.30;1.40;;;14.60;93.50;;;;;;4983754;28;20201;-74
2022/04/02 04:10:42;;;;;;;3.47;1.20;;;14.60;93.40;;;;;;4982422;28;20215;-75
2022/04/02 04:13:10;;;;;;;5.87;1.40;;;14.60;93.50;;;;;;4982876;28;20212;-74
2022/04/02 04:15:41;;;;;;;3.70;1.50;;;14.60;93.50;;;;;;4983143;28;20197;-75
2022/04/02 04:18:09;;;;;;;2.50;1.20;;;14.60;93.40;;;;;;4983058;28;20197;-73
2022/04/02 04:20:38;;;;;;;3.00;1.20;;;14.60;93.40;;;;;;4984027;28;20243;-75
2022/04/02 04:23:07;;;;;;;1.20;0.97;;;14.60;93.40;;;;;;4983248;28;20205;-75
2022/04/02 04:25:35;;;;;;;4.40;1.10;;;14.50;93.50;;;;;;4981744;28;20219;-74
2022/04/02 04:28:04;;;;;;;2.97;1.30;;;14.60;93.40;;;;;;4983083;28;20776;-73
2022/04/02 04:30:34;;;;;;;2.40;1.13;;;14.60;93.40;;;;;;4981634;28;20259;-75
2022/04/02 04:33:03;;;;;;;1.90;1.07;;;14.60;93.50;;;;;;4982663;28;20779;-74
2022/04/02 04:35:32;;;;;;;5.90;1.43;;;14.60;93.50;;;;;;4982663;28;20215;-75
2022/04/02 04:38:00;;;;;;;2.80;1.57;;;14.60;93.50;;;;;;4982492;28;20197;-75
2022/04/02 04:40:31;;;;;;;3.40;1.53;;;14.60;93.50;;;;;;4982211;28;20638;-75
2022/04/02 04:42:59;;;;;;;3.00;1.40;;;14.60;93.40;;;;;;4981659;28;20843;-76
2022/04/02 04:45:28;;;;;;;5.80;1.80;;;14.60;93.60;;;;;;4982467;28;20192;-76
2022/04/02 04:47:56;;;;;;;2.53;1.50;;;14.60;93.60;;;;;;4982223;28;20197;-76
2022/04/02 04:50:26;;;;;;;3.60;1.70;;;14.60;93.50;;;;;;4981340;28;20680;-75
2022/04/02 04:52:55;;;;;;;7.40;2.00;;;14.60;93.50;;;;;;4982311;28;20209;-76
2022/04/02 04:55:25;;;;;;;4.93;2.30;;;14.60;93.60;;;;;;4982445;28;20235;-77
2022/04/02 04:57:53;;;;;;;6.70;2.23;;;14.60;93.60;;;;;;4982892;28;20220;-76
2022/04/02 05:00:23;;;;;;;4.67;2.07;;;14.60;93.70;;;;;;4982161;28;20207;-75
2022/04/02 05:02:51;;;;;;;6.03;1.80;;;14.60;93.60;;;;;;4980747;28;20207;-77
2022/04/02 05:05:23;;;;;;;4.70;2.07;;;14.60;93.60;;;;;;4982493;28;20604;-74
2022/04/02 05:08:06;;;;;;;5.57;1.90;;;14.60;93.70;;;;;;4983078;28;20192;-74
2022/04/02 05:10:36;;;;;;;3.10;1.50;;;14.60;93.80;;;;;;4981755;28;20200;-75
2022/04/02 05:13:04;;;;;;;7.17;2.27;;;14.60;93.70;;;;;;4980680;28;20217;-75
2022/04/02 05:15:33;;;;;;;4.80;1.83;;;14.60;93.60;;;;;;4981947;28;20207;-75
2022/04/02 05:18:03;;;;;;;4.87;1.50;;;14.70;93.70;;;;;;4981591;28;20253;-73
2022/04/02 05:20:31;;;;;;;6.20;2.03;;;14.70;93.60;;;;;;4979771;28;20473;-74
2022/04/02 05:22:59;;;;;;;5.93;1.30;;;14.70;93.80;;;;;;4981166;28;20230;-74
2022/04/02 05:25:29;;;;;;;3.57;1.90;;;14.70;93.70;;;;;;4982096;28;20204;-75
2022/04/02 05:27:57;;;;;;;4.23;1.60;;;14.80;93.60;;;;;;4982488;28;20201;-74
2022/04/02 05:30:27;;;;;;;3.63;1.67;;;14.80;93.50;;;;;;4981933;28;20585;-73
2022/04/02 05:32:56;;;;;;;5.17;1.93;;;14.80;93.50;;;;;;4983309;28;20804;-74
2022/04/02 05:35:24;;;;;;;3.73;1.57;;;14.80;93.40;;;;;;4981987;28;20201;-75
2022/04/02 05:38:01;;;;;;;4.40;1.40;;;14.80;93.30;;;;;;4983366;28;20738;-75
2022/04/02 05:40:32;;;;;;;5.97;1.90;;;14.80;93.30;;;;;;4982375;28;20193;-74
2022/04/02 05:43:00;;;;;;;4.80;1.60;;;14.90;93.20;;;;;;4983382;28;20200;-74
2022/04/02 05:45:29;;;;;;;10.03;2.37;;;14.90;93.20;;;;;;4982656;28;20200;-75
2022/04/02 05:47:58;;;;;;;7.17;2.73;;;14.90;93.10;;;;;;4982936;28;20213;-74
2022/04/02 05:50:26;;;;;;;10.47;3.47;;;15.00;93.10;;;;;;4982412;28;20258;-76
2022/04/02 05:53:05;;;;;;;8.53;2.40;;;15.00;93.00;;;;;;4982029;28;22258;-74
2022/04/02 05:55:36;;;;;;;6.50;1.63;;;15.00;92.80;;;;;;4983684;28;20209;-75
2022/04/02 05:58:06;;;;;;;6.03;1.20;;;15.00;92.60;;;;;;4982409;28;20217;-75
2022/04/02 06:00:36;;;;;;;3.13;1.63;;;15.00;92.50;;;;;;4982572;28;20201;-75
2022/04/02 06:03:04;;;;;;;3.30;1.70;;;15.00;92.30;;;;;;4981857;28;20193;-75
2022/04/02 06:05:33;;;;;;;2.60;1.43;;;15.00;92.30;;;;;;4981761;28;20959;-74
2022/04/02 06:08:01;;;;;;;4.20;1.60;;;15.10;92.40;;;;;;4982589;28;20201;-76
2022/04/02 06:10:30;;;;;;;10.47;6.27;;;15.10;92.10;;;;;;4981450;28;20204;-74
2022/04/02 06:13:01;;;;;;;21.30;13.47;;;15.20;92.10;;;;;;4981737;28;20201;-74
2022/04/02 06:15:29;;;;;;;22.00;15.30;;;15.20;92.00;;;;;;4982529;28;20205;-74
2022/04/02 06:17:57;;;;;;;14.67;9.93;;;15.30;91.90;;;;;;4982711;28;20227;-76
2022/04/02 06:20:26;;;;;;;10.20;6.97;;;15.40;91.90;;;;;;4981990;28;20236;-76
2022/04/02 06:22:56;;;;;;;3.83;2.57;;;15.50;91.60;;;;;;4982688;28;20221;-75
2022/04/02 06:25:28;;;;;;;7.40;1.10;;;15.60;91.30;;;;;;4985615;28;20453;-76
2022/04/02 06:27:56;;;;;;;4.30;1.30;;;15.60;90.50;;;;;;4985589;28;20197;-76
2022/04/02 06:30:27;;;;;;;2.30;0.60;;;15.70;88.80;;;;;;4984115;28;20197;-75
2022/04/02 06:32:56;;;;;;;2.97;1.23;;;15.80;88.30;;;;;;4983771;28;20321;-78
2022/04/02 06:35:26;;;;;;;2.47;0.80;;;15.80;87.90;;;;;;4981827;28;20706;-78
2022/04/02 06:37:55;;;;;;;0.93;0.60;;;15.90;88.30;;;;;;4984452;28;20217;-76
2022/04/02 06:40:26;;;;;;;1.93;0.80;;;16.00;86.10;;;;;;4982809;28;20209;-80
2022/04/02 06:42:56;;;;;;;0.87;0.60;;;16.20;86.90;;;;;;4985051;28;20288;-75
2022/04/02 06:45:27;;;;;;;1.20;0.70;;;16.30;85.20;;;;;;4983480;28;20284;-75
2022/04/02 06:47:59;;;;;;;2.17;0.63;;;16.30;83.30;;;;;;4982743;28;20752;-79
2022/04/02 06:50:28;;;;;;;3.03;0.77;;;16.40;82.10;;;;;;4983239;28;20205;-77
2022/04/02 06:52:57;;;;;;;2.77;0.80;;;16.50;81.40;;;;;;4985285;28;20286;-77
2022/04/02 06:55:32;;;;;;;1.50;0.70;;;16.50;81.00;;;;;;4983550;28;20208;-79
2022/04/02 06:58:02;;;;;;;1.23;0.70;;;16.60;80.90;;;;;;4984812;28;20222;-77
2022/04/02 07:00:31;;;;;;;1.23;0.50;;;16.60;80.50;;;;;;4984013;28;20205;-76
2022/04/02 07:03:00;;;;;;;2.27;0.70;;;16.70;80.60;;;;;;4984277;28;20235;-76
2022/04/02 07:05:29;;;;;;;2.07;0.50;;;16.80;80.80;;;;;;4988519;28;20339;-76
2022/04/02 07:07:58;;;;;;;2.23;0.60;;;16.90;80.70;;;;;;4991825;28;20214;-76
2022/04/02 07:10:27;;;;;;;1.90;0.53;;;16.90;79.10;;;;;;4993521;28;20288;-79
2022/04/02 07:12:56;;;;;;;4.07;0.60;;;17.00;79.90;;;;;;4989243;28;20208;-78
2022/04/02 07:15:24;;;;;;;0.70;0.50;;;17.10;79.20;;;;;;4989976;28;20287;-77
2022/04/02 07:17:55;;;;;;;2.50;0.50;;;17.10;77.70;;;;;;4987956;28;20213;-75
2022/04/02 07:20:27;;;;;;;2.60;0.70;;;17.20;77.70;;;;;;4987468;28;20193;-77
2022/04/02 07:22:58;;;;;;;1.63;0.70;;;17.20;77.30;;;;;;4986753;28;20231;-76
2022/04/02 07:25:31;;;;;;;0.70;0.40;;;17.30;76.60;;;;;;4987490;28;20228;-79
2022/04/02 07:28:00;;;;;;;1.13;0.50;;;17.30;75.10;;;;;;4987923;28;20193;-76
2022/04/02 07:30:29;;;;;;;1.53;0.60;;;17.40;75.80;;;;;;4986620;28;20240;-77
2022/04/02 07:33:01;;;;;;;0.70;0.40;;;17.40;74.20;;;;;;4987252;28;20768;-78
2022/04/02 07:35:40;;;;;;;0.50;0.40;;;17.40;74.00;;;;;;4986293;28;20205;-78
2022/04/02 07:38:16;;;;;;;1.90;0.47;;;17.40;73.40;;;;;;4986558;28;20631;-78
2022/04/02 07:40:51;;;;;;;0.57;0.40;;;17.50;74.50;;;;;;4987876;28;20204;-78
2022/04/02 07:43:31;;;;;;;0.80;0.50;;;17.50;72.60;;;;;;4986470;28;20733;-75
2022/04/02 07:46:04;;;;;;;0.40;0.40;;;17.50;72.70;;;;;;4988182;28;20619;-76
2022/04/02 07:48:39;;;;;;;1.30;0.40;;;17.50;72.70;;;;;;4986311;28;20206;-78
2022/04/02 07:51:12;;;;;;;2.20;0.60;;;17.50;73.00;;;;;;4952883;28;20196;-76
2022/04/02 07:53:44;;;;;;;0.57;0.30;;;17.60;73.30;;;;;;4986221;28;20194;-77
2022/04/02 07:56:15;;;;;;;4.33;0.30;;;17.60;71.90;;;;;;4986038;28;20616;-78
2022/04/02 07:58:47;;;;;;;1.73;0.30;;;17.60;72.30;;;;;;4984366;28;20216;-76
2022/04/02 08:01:18;;;;;;;0.50;0.37;;;17.70;72.20;;;;;;4984749;28;20196;-76
2022/04/02 08:03:49;;;;;;;0.70;0.37;;;17.80;72.60;;;;;;4986150;28;20196;-77
2022/04/02 08:06:17;;;;;;;1.13;0.30;;;17.80;71.90;;;;;;4985688;28;20719;-77
2022/04/02 08:08:47;;;;;;;0.50;0.40;;;17.80;71.10;;;;;;4984507;28;20225;-75
2022/04/02 08:11:18;;;;;;;0.60;0.30;;;17.80;70.50;;;;;;4984894;28;20205;-78
2022/04/02 08:13:47;;;;;;;0.83;0.50;;;17.80;70.50;;;;;;4985098;28;20201;-78
2022/04/02 08:16:17;;;;;;;1.13;0.40;;;17.90;71.00;;;;;;4983029;28;20786;-77
2022/04/02 08:18:48;;;;;;;3.27;0.50;;;17.90;71.10;;;;;;4984846;28;20308;-76
2022/04/02 08:21:20;;;;;;;3.00;0.40;;;17.90;70.00;;;;;;4984063;28;20252;-77
2022/04/02 08:23:48;;;;;;;0.60;0.30;;;18.00;69.40;;;;;;4983870;28;20655;-79
2022/04/02 08:26:26;;;;;;;1.20;0.40;;;18.00;69.90;;;;;;4984583;28;20201;-78
2022/04/02 08:29:08;;;;;;;1.80;0.40;;;18.10;68.70;;;;;;4983046;28;20442;-77
2022/04/02 08:32:01;;;;;;;0.83;0.50;;;18.20;68.30;;;;;;4983893;28;20755;-74
2022/04/02 08:34:51;;;;;;;3.60;0.50;;;18.20;68.60;;;;;;4982228;28;20208;-76
2022/04/02 08:37:29;;;;;;;1.07;0.40;;;18.30;67.40;;;;;;4984622;28;20207;-78
2022/04/02 08:40:03;;;;;;;0.70;0.33;;;18.30;67.00;;;;;;4984124;28;20201;-79
2022/04/02 08:43:02;;;;;;;0.87;0.40;;;18.40;67.10;;;;;;4983730;28;20224;-77
2022/04/02 08:45:33;;;;;;;2.93;0.57;;;18.50;67.20;;;;;;4983890;28;20214;-78
2022/04/02 08:48:24;;;;;;;3.43;0.60;;;18.50;66.90;;;;;;4982622;28;20642;-79
2022/04/02 08:51:07;;;;;;;3.70;0.50;;;18.60;66.20;;;;;;4984745;28;20196;-79
2022/04/02 08:53:49;;;;;;;2.90;0.47;;;18.60;64.90;;;;;;4983507;28;20219;-77
2022/04/02 08:56:25;;;;;;;1.17;0.60;;;18.70;64.40;;;;;;4982844;28;20200;-78
2022/04/02 08:59:01;;;;;;;2.93;0.40;;;18.70;64.30;;;;;;4982934;28;20215;-79
2022/04/02 09:01:41;;;;;;;1.23;0.40;;;18.70;64.50;;;;;;4982442;28;20259;-80
2022/04/02 09:04:49;;;;;;;1.27;0.50;;;18.80;64.10;;;;;;4985098;28;20199;-75
2022/04/02 09:07:56;;;;;;;2.40;0.87;;;18.90;63.50;;;;;;4975917;28;20196;-75
2022/04/02 09:10:55;;;;;;;1.23;0.43;;;18.90;64.70;;;;;;4983022;28;20217;-75
2022/04/02 09:13:59;;;;;;;1.33;0.50;;;19.00;62.00;;;;;;4956021;28;20257;-75
2022/04/02 09:16:32;;;;;;;1.20;0.53;;;19.10;63.20;;;;;;4984333;28;20211;-74
2022/04/02 09:19:13;;;;;;;2.30;0.60;;;19.20;62.50;;;;;;4982763;28;20224;-79
2022/04/02 09:22:04;;;;;;;1.37;0.67;;;19.30;61.50;;;;;;4982906;28;20283;-77
2022/04/02 09:25:09;;;;;;;4.47;0.50;;;19.40;62.70;;;;;;4984451;28;20201;-77
2022/04/02 09:28:10;;;;;;;2.53;0.50;;;19.50;60.80;;;;;;4984126;28;20200;-75
2022/04/02 09:31:12;;;;;;;4.50;0.60;;;19.60;59.30;;;;;;4981231;28;20658;-77
2022/04/02 09:34:19;;;;;;;1.33;0.57;;;19.60;59.00;;;;;;4983502;28;20211;-77
2022/04/02 09:37:00;;;;;;;1.80;0.60;;;19.60;59.20;;;;;;4984221;28;20207;-77
2022/04/02 09:39:44;;;;;;;2.30;0.50;;;19.60;59.40;;;;;;4984618;28;20694;-77
2022/04/02 09:42:37;;;;;;;0.80;0.40;;;19.60;59.60;;;;;;4985324;28;20830;-77
2022/04/02 09:45:10;;;;;;;1.90;0.70;;;19.60;58.80;;;;;;4985009;28;20273;-77
2022/04/02 09:48:07;;;;;;;4.03;0.60;;;19.70;59.50;;;;;;4983850;28;20842;-77
2022/04/02 09:50:36;;;;;;;5.30;0.73;;;19.60;59.20;;;;;;4983098;28;20194;-75
2022/04/02 09:53:14;;;;;;;3.07;0.70;;;19.70;60.30;;;;;;4983730;28;20208;-77
2022/04/02 09:55:51;;;;;;;2.27;0.80;;;19.70;60.00;;;;;;4983529;28;20725;-76
2022/04/02 09:58:57;;;;;;;1.93;0.50;;;19.70;59.40;;;;;;4983044;28;20192;-77
2022/04/02 10:01:30;;;;;;;3.23;0.60;;;19.70;59.40;;;;;;4984702;28;20197;-76
2022/04/02 10:04:12;;;;;;;0.93;0.50;;;19.60;59.10;;;;;;4983406;28;20188;-76
2022/04/02 10:06:42;;;;;;;1.37;0.70;;;19.60;60.00;;;;;;4985095;28;20205;-74
2022/04/02 10:09:11;;;;;;;1.90;0.63;;;19.60;59.90;;;;;;4986568;28;20197;-75
2022/04/02 10:11:43;;;;;;;2.50;0.70;;;19.60;60.10;;;;;;4986506;28;20205;-75
2022/04/02 10:14:12;;;;;;;3.63;0.50;;;19.70;60.00;;;;;;4984061;28;20200;-75
2022/04/02 10:16:41;;;;;;;1.23;0.63;;;19.80;60.10;;;;;;4983030;28;20205;-76
2022/04/02 10:19:11;;;;;;;4.60;0.67;;;19.90;60.00;;;;;;4984696;28;20216;-77
2022/04/02 10:21:40;;;;;;;1.80;0.40;;;20.00;59.20;;;;;;4985803;28;20669;-75
2022/04/02 10:24:22;;;;;;;0.67;0.53;;;20.10;59.10;;;;;;4986376;28;20239;-77
2022/04/02 10:26:54;;;;;;;1.47;0.50;;;20.20;59.00;;;;;;4987390;28;20193;-78
2022/04/02 10:29:35;;;;;;;2.17;0.70;;;20.30;58.60;;;;;;4986941;28;20204;-78
2022/04/02 10:32:16;;;;;;;1.13;0.40;;;20.30;57.60;;;;;;4987196;28;20200;-77
2022/04/02 10:34:53;;;;;;;1.67;0.47;;;20.30;58.00;;;;;;4988029;28;20204;-77
2022/04/02 10:37:26;;;;;;;3.30;0.60;;;20.40;58.50;;;;;;4986577;28;20204;-77
2022/04/02 10:39:58;;;;;;;0.63;0.40;;;20.40;58.70;;;;;;4987925;28;20654;-75
2022/04/02 10:42:34;;;;;;;2.10;0.80;;;20.40;58.80;;;;;;4989022;28;20193;-75
2022/04/02 10:45:05;;;;;;;1.97;0.50;;;20.40;58.50;;;;;;4986350;28;20331;-75
2022/04/02 10:47:39;;;;;;;4.23;0.70;;;20.40;58.50;;;;;;4986101;28;20319;-76
2022/04/02 10:50:10;;;;;;;1.52;0.60;;;20.40;57.70;;;;;;4987256;28;20193;-74
2022/04/02 10:52:39;;;;;;;1.10;0.70;;;20.40;58.10;;;;;;4987321;28;20193;-78
2022/04/02 10:55:08;;;;;;;4.60;0.73;;;20.40;58.10;;;;;;4987874;28;20804;-77
2022/04/02 10:57:36;;;;;;;5.47;0.80;;;20.40;58.10;;;;;;4987375;28;20296;-76
2022/04/02 11:00:07;;;;;;;2.97;0.50;;;20.30;58.70;;;;;;4988851;28;20220;-76
2022/04/02 11:02:41;;;;;;;3.43;0.70;;;20.30;58.00;;;;;;4988450;28;20197;-76
2022/04/02 11:05:14;;;;;;;3.43;0.90;;;20.30;58.10;;;;;;4987592;28;20289;-74
2022/04/02 11:07:44;;;;;;;2.30;0.70;;;20.30;57.70;;;;;;4987853;28;20197;-76
2022/04/02 11:10:14;;;;;;;4.63;1.00;;;20.40;57.70;;;;;;4987334;28;20680;-75
2022/04/02 11:12:45;;;;;;;4.10;0.70;;;20.40;58.20;;;;;;4986577;28;20200;-75
2022/04/02 11:15:19;;;;;;;2.50;0.60;;;20.50;58.50;;;;;;4985324;28;20259;-74
2022/04/02 11:17:49;;;;;;;1.83;0.63;;;20.50;57.90;;;;;;4986666;28;20201;-75
2022/04/02 11:20:21;;;;;;;3.10;0.70;;;20.50;58.10;;;;;;4985512;28;20208;-76
2022/04/02 11:23:13;;;;;;;1.37;0.50;;;20.50;57.40;;;;;;4985161;28;20193;-77
2022/04/02 11:25:49;;;;;;;2.03;0.53;;;20.60;56.70;;;;;;4985264;28;20199;-76
2022/04/02 11:28:18;;;;;;;0.63;0.40;;;20.70;57.20;;;;;;4985980;28;20208;-76
2022/04/02 11:30:49;;;;;;;5.10;1.33;;;20.70;56.00;;;;;;4985783;28;20200;-74
2022/04/02 11:33:23;;;;;;;5.57;0.65;;;20.70;55.70;;;;;;4985731;28;20216;-76
2022/04/02 11:35:56;;;;;;;2.47;0.60;;;20.80;55.60;;;;;;4987090;28;20777;-75
2022/04/02 11:38:34;;;;;;;3.63;0.80;;;20.80;55.20;;;;;;4984522;28;20196;-76
2022/04/02 11:41:16;;;;;;;0.77;0.43;;;20.90;54.70;;;;;;4984602;28;20209;-76
2022/04/02 11:43:45;;;;;;;2.20;0.52;;;21.00;55.60;;;;;;4985303;28;20259;-77
2022/04/02 11:46:16;;;;;;;3.05;0.57;;;21.10;54.50;;;;;;4985777;28;20288;-76
2022/04/02 11:48:52;;;;;;;3.15;0.77;;;21.10;54.40;;;;;;4985259;28;20456;-74
2022/04/02 11:51:24;;;;;;;1.27;0.57;;;21.30;53.50;;;;;;4984125;28;20285;-76
2022/04/02 11:53:53;;;;;;;1.77;0.60;;;21.40;54.00;;;;;;4985123;28;20738;-76
2022/04/02 11:56:27;;;;;;;2.42;0.60;;;21.40;54.20;;;;;;4983871;28;20205;-76
2022/04/02 11:58:58;;;;;;;1.85;0.60;;;21.30;53.40;;;;;;4983999;28;20196;-75
2022/04/02 12:01:27;;;;;;;1.73;0.50;;;21.30;53.60;;;;;;4984917;28;20244;-76
2022/04/02 12:04:12;;;;;;;0.98;0.60;;;21.30;53.90;;;;;;4986095;28;20200;-76
2022/04/02 12:06:43;;;;;;;2.10;0.60;;;21.30;53.40;;;;;;4984954;28;20220;-75
2022/04/02 12:09:13;;;;;;;2.42;0.70;;;21.30;54.00;;;;;;4984305;28;20208;-76
2022/04/02 12:11:49;;;;;;;1.35;0.75;;;21.30;54.00;;;;;;4985428;28;20196;-75
2022/04/02 12:14:28;;;;;;;0.52;0.50;;;21.40;53.70;;;;;;4984640;28;20203;-75
2022/04/02 12:17:00;;;;;;;1.35;0.68;;;21.50;53.80;;;;;;4984050;28;20197;-75
2022/04/02 12:19:40;;;;;;;4.65;0.60;;;21.60;52.50;;;;;;4985430;28;20580;-76
2022/04/02 12:22:26;;;;;;;1.90;0.73;;;21.60;51.60;;;;;;4984797;28;20231;-77
2022/04/02 12:24:57;;;;;;;1.42;0.50;;;21.50;51.60;;;;;;4984486;28;20812;-75
2022/04/02 12:27:26;;;;;;;3.47;0.70;;;21.40;51.60;;;;;;4985229;28;20193;-74
2022/04/02 12:29:57;;;;;;;4.90;0.60;;;21.30;51.80;;;;;;4983125;28;20208;-75
2022/04/02 12:32:31;;;;;;;2.33;0.50;;;21.20;51.50;;;;;;4984367;28;20193;-74
2022/04/02 12:35:04;;;;;;;1.83;0.50;;;21.20;52.30;;;;;;4986825;28;20196;-75
2022/04/02 12:37:42;;;;;;;2.55;0.70;;;21.20;52.70;;;;;;4985797;28;20344;-75
2022/04/02 12:40:20;;;;;;;11.60;1.83;;;21.10;52.90;;;;;;4986553;28;20211;-75
2022/04/02 12:42:49;;;;;;;4.68;1.27;;;21.10;52.70;;;;;;4984213;28;20200;-76
2022/04/02 12:45:24;;;;;;;0.88;0.50;;;21.00;53.20;;;;;;4985649;28;20333;-76
2022/04/02 12:48:01;;;;;;;1.75;0.50;;;20.90;53.60;;;;;;4982977;28;20238;-75
2022/04/02 12:50:31;;;;;;;1.40;0.70;;;20.90;53.90;;;;;;4986075;28;20254;-75
2022/04/02 12:53:01;;;;;;;3.17;0.70;;;21.00;55.00;;;;;;4984916;28;21247;-76
2022/04/02 12:55:32;;;;;;;3.87;1.00;;;21.00;55.70;;;;;;4984364;28;20205;-75
2022/04/02 12:58:03;;;;;;;2.38;0.80;;;21.00;55.70;;;;;;4984950;28;20236;-75
2022/04/02 13:00:34;;;;;;;2.85;0.70;;;21.00;56.20;;;;;;4984553;28;20203;-76
2022/04/02 13:03:04;;;;;;;5.38;0.80;;;21.00;55.70;;;;;;4984743;28;20220;-77
2022/04/02 13:05:48;;;;;;;5.80;1.17;;;21.10;56.40;;;;;;4985277;28;20294;-77
2022/04/02 13:08:27;;;;;;;2.95;1.00;;;21.20;55.40;;;;;;4986171;28;20291;-78
2022/04/02 13:10:59;;;;;;;4.43;0.65;;;21.50;54.70;;;;;;4988035;28;20553;-76
2022/04/02 13:13:37;;;;;;;3.80;0.60;;;21.70;53.80;;;;;;4986237;28;20201;-77
2022/04/02 13:16:07;;;;;;;2.80;0.60;;;21.90;51.40;;;;;;4986309;28;20196;-77